createdAt,value
2022-09-30T00:02:18.820Z,5.42
2022-09-30T00:06:20.864Z,5.17
2022-09-30T00:10:22.614Z,5.07
2022-09-30T00:14:24.414Z,5.20
2022-09-30T00:18:27.196Z,5.15
2022-09-30T00:22:28.587Z,4.97
2022-09-30T00:26:30.054Z,4.96
2022-09-30T00:30:31.453Z,5.01
2022-09-30T00:34:32.956Z,5.07
2022-09-30T00:38:34.365Z,4.72
2022-09-30T00:42:35.777Z,4.84
2022-09-30T00:46:44.277Z,4.83
2022-09-30T00:50:55.554Z,4.94
2022-09-30T00:54:59.350Z,4.92
2022-09-30T00:59:06.854Z,4.96
2022-09-30T01:03:08.331Z,5.07
2022-09-30T01:07:10.810Z,4.87
2022-09-30T01:11:12.260Z,4.92
2022-09-30T01:15:13.744Z,4.85
2022-09-30T01:19:45.628Z,4.95
2022-09-30T01:23:57.369Z,4.94
2022-09-30T01:28:04.715Z,4.85
2022-09-30T01:32:18.126Z,4.63
2022-09-30T01:36:38.281Z,4.57
2022-09-30T01:40:45.527Z,4.43
2022-09-30T01:45:03.031Z,4.48
2022-09-30T01:49:34.261Z,4.53
2022-09-30T01:53:44.242Z,4.35
2022-09-30T01:57:45.507Z,4.43
2022-09-30T02:01:54.113Z,4.59
2022-09-30T02:06:02.356Z,4.51
2022-09-30T02:10:14.227Z,4.61
2022-09-30T02:14:41.501Z,4.53
2022-09-30T02:18:47.375Z,4.51
2022-09-30T02:22:52.273Z,4.33
2022-09-30T02:26:56.963Z,4.40
2022-09-30T02:31:02.108Z,4.55
2022-09-30T02:35:12.081Z,4.23
2022-09-30T02:39:28.557Z,4.03
2022-09-30T02:43:31.452Z,4.16
2022-09-30T02:48:05.007Z,4.16
2022-09-30T02:52:29.974Z,4.25
2022-09-30T02:56:59.593Z,4.29
2022-09-30T03:01:01.065Z,4.29
2022-09-30T03:05:03.452Z,4.34
2022-09-30T03:09:05.170Z,4.31
2022-09-30T03:13:34.484Z,4.48
2022-09-30T03:18:02.101Z,4.51
2022-09-30T03:22:06.423Z,4.52
2022-09-30T03:26:16.569Z,4.34
2022-09-30T03:30:24.452Z,4.51
2022-09-30T03:34:42.671Z,4.48
2022-09-30T03:38:53.415Z,4.13
2022-09-30T03:43:06.019Z,4.04
2022-09-30T03:47:11.113Z,4.12
2022-09-30T03:51:13.496Z,4.10
2022-09-30T03:55:15.581Z,3.95
2022-09-30T03:59:26.123Z,4.10
2022-09-30T04:03:28.460Z,3.91
2022-09-30T04:07:29.987Z,4.03
2022-09-30T04:11:31.370Z,3.67
2022-09-30T04:15:32.713Z,3.92
2022-09-30T04:19:40.133Z,3.87
2022-09-30T04:23:42.595Z,3.63
2022-09-30T04:27:43.976Z,3.68
2022-09-30T04:31:45.394Z,3.63
2022-09-30T04:35:46.757Z,3.71
2022-09-30T04:39:48.148Z,3.92
2022-09-30T04:43:49.569Z,4.03
2022-09-30T04:47:50.940Z,4.03
2022-09-30T04:51:52.275Z,3.88
2022-09-30T04:55:59.739Z,4.03
2022-09-30T05:00:01.987Z,4.03
2022-09-30T05:04:03.475Z,3.96
2022-09-30T05:08:05.487Z,3.99
2022-09-30T05:12:07.160Z,3.90
2022-09-30T05:16:09.994Z,3.84
2022-09-30T05:20:11.512Z,3.54
2022-09-30T05:24:13.581Z,3.63
2022-09-30T05:28:14.993Z,3.53
2022-09-30T05:32:16.638Z,3.24
2022-09-30T05:36:18.231Z,3.45
2022-09-30T05:40:19.689Z,3.56
2022-09-30T05:44:21.439Z,3.76
2022-09-30T05:48:24.099Z,3.79
2022-09-30T05:52:25.971Z,3.82
2022-09-30T05:56:27.367Z,3.65
2022-09-30T06:00:29.142Z,3.98
2022-09-30T06:04:30.830Z,4.07
2022-09-30T06:08:32.263Z,4.07
2022-09-30T06:12:36.161Z,4.42
2022-09-30T06:16:37.585Z,4.27
2022-09-30T06:20:39.093Z,4.53
2022-09-30T06:24:41.614Z,4.83
2022-09-30T06:28:44.675Z,5.12
2022-09-30T06:32:46.107Z,5.32
2022-09-30T06:36:47.462Z,5.47
2022-09-30T06:40:50.117Z,5.53
2022-09-30T06:44:53.451Z,5.75
2022-09-30T06:49:10.705Z,5.79
2022-09-30T06:53:14.826Z,5.82
2022-09-30T06:57:16.669Z,6.11
2022-09-30T07:01:18.150Z,6.34
2022-09-30T07:05:20.062Z,6.40
2022-09-30T07:09:21.493Z,6.53
2022-09-30T07:13:23.098Z,6.68
2022-09-30T07:17:24.498Z,6.60
2022-09-30T07:21:25.946Z,6.77
2022-09-30T07:25:27.479Z,6.83
2022-09-30T07:29:36.664Z,7.07
2022-09-30T07:33:53.720Z,7.36
2022-09-30T07:37:55.084Z,7.51
2022-09-30T07:41:56.658Z,7.66
2022-09-30T07:45:58.575Z,7.74
2022-09-30T07:50:00.443Z,7.64
2022-09-30T07:54:09.303Z,8.01
2022-09-30T07:58:10.991Z,8.52
2022-09-30T08:02:17.893Z,9.05
2022-09-30T08:06:21.437Z,9.39
2022-09-30T08:10:22.861Z,9.27
2022-09-30T08:14:26.664Z,9.40
2022-09-30T08:18:28.726Z,9.65
2022-09-30T08:22:30.111Z,9.36
2022-09-30T08:26:31.665Z,9.89
2022-09-30T08:30:37.581Z,10.19
2022-09-30T08:34:39.041Z,9.92
2022-09-30T08:38:40.981Z,10.64
2022-09-30T08:43:21.245Z,10.64
2022-09-30T08:47:37.979Z,11.37
2022-09-30T08:51:45.236Z,11.59
2022-09-30T08:55:46.795Z,11.55
2022-09-30T08:59:52.768Z,11.86
2022-09-30T09:03:55.220Z,12.05
2022-09-30T09:08:19.148Z,12.42
2022-09-30T09:12:41.354Z,12.86
2022-09-30T09:16:55.300Z,12.94
2022-09-30T09:20:59.805Z,13.42
2022-09-30T09:25:02.794Z,13.70
2022-09-30T09:29:43.402Z,13.55
2022-09-30T09:33:45.224Z,13.56
2022-09-30T09:38:18.629Z,14.27
2022-09-30T09:42:31.504Z,13.89
2022-09-30T09:46:41.790Z,13.92
2022-09-30T09:51:03.885Z,14.50
2022-09-30T09:55:05.832Z,14.54
2022-09-30T09:59:18.025Z,14.68
2022-09-30T10:03:25.147Z,14.07
2022-09-30T10:07:29.001Z,14.52
2022-09-30T10:11:30.978Z,15.22
2022-09-30T10:15:33.524Z,15.30
2022-09-30T10:19:35.251Z,15.45
2022-09-30T10:23:40.759Z,15.71
2022-09-30T10:27:59.271Z,15.94
2022-09-30T10:32:08.332Z,16.29
2022-09-30T10:36:15.266Z,17.04
2022-09-30T10:40:18.791Z,17.01
2022-09-30T10:44:23.501Z,17.04
2022-09-30T10:48:27.413Z,16.52
2022-09-30T10:52:32.318Z,17.67
2022-09-30T10:56:41.065Z,16.65
2022-09-30T11:00:43.842Z,17.22
2022-09-30T11:04:52.652Z,16.86
2022-09-30T11:09:00.638Z,17.01
2022-09-30T11:13:02.014Z,17.86
2022-09-30T11:17:28.690Z,16.61
2022-09-30T11:21:46.070Z,17.56
2022-09-30T11:25:50.194Z,18.06
2022-09-30T11:30:00.722Z,16.62
2022-09-30T11:34:20.986Z,18.47
2022-09-30T11:39:02.043Z,18.48
2022-09-30T11:43:08.452Z,16.81
2022-09-30T11:47:31.238Z,16.20
2022-09-30T11:51:42.160Z,16.91
2022-09-30T11:55:59.392Z,17.10
2022-09-30T12:00:28.496Z,18.00
2022-09-30T12:04:39.411Z,18.60
2022-09-30T12:08:51.760Z,18.23
2022-09-30T12:12:58.845Z,16.88
2022-09-30T12:17:03.429Z,15.68
2022-09-30T12:21:23.225Z,17.15
2022-09-30T12:25:28.262Z,17.19
2022-09-30T12:30:01.092Z,17.77
2022-09-30T12:34:08.308Z,18.21
2022-09-30T12:38:27.946Z,19.30
2022-09-30T12:42:29.210Z,18.68
2022-09-30T12:46:58.509Z,19.04
2022-09-30T12:51:00.855Z,19.01
2022-09-30T12:55:08.945Z,18.74
2022-09-30T12:59:15.235Z,17.85
2022-09-30T13:03:18.361Z,17.73
2022-09-30T13:07:23.256Z,19.33
2022-09-30T13:12:03.218Z,18.85
2022-09-30T13:16:06.490Z,18.41
2022-09-30T13:20:47.148Z,18.16
2022-09-30T13:24:57.886Z,18.59
2022-09-30T13:29:02.644Z,18.44
2022-09-30T13:33:03.993Z,18.19
2022-09-30T13:37:05.847Z,18.32
2022-09-30T13:41:25.968Z,18.51
2022-09-30T13:45:39.376Z,17.70
2022-09-30T13:49:49.266Z,19.61
2022-09-30T13:53:55.502Z,17.35
2022-09-30T13:58:09.006Z,17.86
2022-09-30T14:02:31.436Z,17.10
2022-09-30T14:07:16.343Z,17.64
2022-09-30T14:11:54.286Z,17.26
2022-09-30T14:16:06.301Z,16.67
2022-09-30T14:20:38.881Z,16.61
2022-09-30T14:24:40.832Z,16.31
2022-09-30T14:28:50.433Z,16.26
2022-09-30T14:32:58.394Z,16.40
2022-09-30T14:36:59.825Z,16.51
2022-09-30T14:41:08.226Z,17.66
2022-09-30T14:45:14.099Z,18.04
2022-09-30T14:49:34.230Z,18.04
2022-09-30T14:53:39.980Z,17.54
2022-09-30T14:57:43.734Z,17.87
2022-09-30T15:01:51.337Z,18.28
2022-09-30T15:05:53.390Z,17.56
2022-09-30T15:10:01.745Z,16.85
2022-09-30T15:14:07.605Z,16.19
2022-09-30T15:18:27.440Z,16.30
2022-09-30T15:22:29.226Z,15.69
2022-09-30T15:26:32.209Z,16.08
2022-09-30T15:30:33.776Z,16.61
2022-09-30T15:34:35.214Z,16.54
2022-09-30T15:38:38.133Z,16.31
2022-09-30T15:42:45.302Z,15.89
2022-09-30T15:47:03.110Z,15.82
2022-09-30T15:51:42.345Z,15.87
2022-09-30T15:55:46.137Z,15.91
2022-09-30T15:59:59.937Z,15.85
2022-09-30T16:04:16.467Z,15.51
2022-09-30T16:08:24.573Z,15.06
2022-09-30T16:12:31.379Z,14.94
2022-09-30T16:16:35.702Z,14.88
2022-09-30T16:20:37.433Z,15.07
2022-09-30T16:24:42.317Z,15.03
2022-09-30T16:28:44.052Z,14.93
2022-09-30T16:32:49.435Z,14.88
2022-09-30T16:36:52.607Z,14.90
2022-09-30T16:40:54.014Z,14.79
2022-09-30T16:44:55.906Z,14.61
2022-09-30T16:48:57.299Z,14.36
2022-09-30T16:52:58.791Z,14.18
2022-09-30T16:57:03.105Z,14.18
2022-09-30T17:01:04.666Z,13.79
2022-09-30T17:05:06.709Z,13.78
2022-09-30T17:09:08.113Z,13.65
2022-09-30T17:13:09.936Z,13.52
2022-09-30T17:17:13.738Z,13.34
2022-09-30T17:21:20.035Z,12.90
2022-09-30T17:25:21.539Z,12.89
2022-09-30T17:29:41.761Z,12.63
2022-09-30T17:33:43.687Z,12.26
2022-09-30T17:37:46.523Z,12.19
2022-09-30T17:42:06.656Z,12.03
2022-09-30T17:46:08.225Z,12.03
2022-09-30T17:50:10.115Z,12.02
2022-09-30T17:54:11.655Z,11.71
2022-09-30T17:58:14.007Z,11.79
2022-09-30T18:02:17.590Z,11.81
2022-09-30T18:06:22.955Z,11.82
2022-09-30T18:10:25.358Z,11.65
2022-09-30T18:14:35.192Z,11.58
2022-09-30T18:18:36.643Z,11.46
2022-09-30T18:22:38.221Z,11.41
2022-09-30T18:26:39.724Z,11.20
2022-09-30T18:30:41.259Z,11.12
2022-09-30T18:34:42.689Z,10.96
2022-09-30T18:38:44.054Z,10.78
2022-09-30T18:42:46.097Z,10.77
2022-09-30T18:46:47.509Z,10.59
2022-09-30T18:50:51.271Z,10.22
2022-09-30T18:54:52.749Z,10.23
2022-09-30T18:58:54.297Z,10.17
2022-09-30T19:02:56.804Z,10.09
2022-09-30T19:06:58.227Z,10.13
2022-09-30T19:11:00.077Z,10.10
2022-09-30T19:15:17.243Z,10.05
2022-09-30T19:19:20.416Z,10.28
2022-09-30T19:23:22.083Z,10.23
2022-09-30T19:27:26.151Z,10.25
2022-09-30T19:31:28.368Z,10.02
2022-09-30T19:35:38.730Z,10.05
2022-09-30T19:39:45.914Z,9.93
2022-09-30T19:43:50.859Z,9.81
2022-09-30T19:47:52.298Z,9.76
2022-09-30T19:51:53.718Z,9.66
2022-09-30T19:56:02.806Z,9.59
2022-09-30T20:00:05.562Z,9.35
2022-09-30T20:04:08.139Z,9.42
2022-09-30T20:08:09.613Z,9.28
2022-09-30T20:12:15.207Z,9.33
2022-09-30T20:16:18.362Z,9.27
2022-09-30T20:20:45.949Z,9.08
2022-09-30T20:24:47.695Z,9.04
2022-09-30T20:28:49.050Z,8.96
2022-09-30T20:32:50.414Z,8.86
2022-09-30T20:36:51.814Z,8.89
2022-09-30T20:41:01.981Z,8.84
2022-09-30T20:45:06.090Z,8.71
2022-09-30T20:49:07.724Z,8.70
2022-09-30T20:53:11.512Z,8.60
2022-09-30T20:57:12.905Z,8.48
2022-09-30T21:01:19.950Z,8.33
2022-09-30T21:05:21.464Z,8.33
2022-09-30T21:09:22.887Z,8.24
2022-09-30T21:13:24.517Z,8.28
2022-09-30T21:17:25.892Z,8.31
2022-09-30T21:21:27.329Z,8.33
2022-09-30T21:25:32.422Z,8.37
2022-09-30T21:29:33.827Z,8.42
2022-09-30T21:33:36.025Z,8.42
2022-09-30T21:37:37.794Z,8.41
2022-09-30T21:41:40.648Z,8.30
2022-09-30T21:45:42.447Z,8.27
2022-09-30T21:49:44.001Z,8.28
2022-09-30T21:53:46.920Z,8.26
2022-09-30T21:57:48.383Z,8.20
2022-09-30T22:01:50.239Z,8.09
2022-09-30T22:05:53.294Z,8.11
2022-09-30T22:09:54.769Z,8.01
2022-09-30T22:13:58.123Z,8.00
2022-09-30T22:17:59.586Z,7.92
2022-09-30T22:22:01.657Z,7.79
2022-09-30T22:26:22.390Z,7.73
2022-09-30T22:30:23.834Z,7.72
2022-09-30T22:34:43.502Z,7.64
2022-09-30T22:38:46.081Z,7.57
2022-09-30T22:42:48.004Z,7.54
2022-09-30T22:46:50.593Z,7.45
2022-09-30T22:50:51.990Z,7.10
2022-09-30T22:54:53.887Z,7.16
2022-09-30T22:58:55.425Z,7.28
2022-09-30T23:02:56.828Z,7.32
2022-09-30T23:06:58.347Z,7.30
2022-09-30T23:11:03.141Z,7.30
2022-09-30T23:15:05.110Z,7.28
2022-09-30T23:19:06.573Z,7.24
2022-09-30T23:23:07.984Z,7.11
2022-09-30T23:27:09.371Z,7.03
2022-09-30T23:31:15.910Z,7.01
2022-09-30T23:35:17.385Z,7.15
2022-09-30T23:39:20.803Z,7.15
2022-09-30T23:43:22.302Z,6.86
2022-09-30T23:47:23.715Z,6.98
2022-09-30T23:51:25.154Z,7.13
2022-09-30T23:55:27.945Z,7.12
2022-09-30T23:59:30.183Z,7.35
